sensor_id;sensor_type;location;lat;lon;timestamp;temperature;humidity
78876;DHT22;68253;52.506;5.486;2023-08-24T00:01:25;17.60;70.00
78876;DHT22;68253;52.506;5.486;2023-08-24T00:03:52;17.60;70.00
78876;DHT22;68253;52.506;5.486;2023-08-24T00:06:18;17.60;70.10
78876;DHT22;68253;52.506;5.486;2023-08-24T00:08:45;17.60;70.10
78876;DHT22;68253;52.506;5.486;2023-08-24T00:11:11;17.60;70.20
78876;DHT22;68253;52.506;5.486;2023-08-24T00:13:41;17.60;70.20
78876;DHT22;68253;52.506;5.486;2023-08-24T00:16:12;17.60;70.20
78876;DHT22;68253;52.506;5.486;2023-08-24T00:18:38;17.50;70.40
78876;DHT22;68253;52.506;5.486;2023-08-24T00:21:04;17.60;70.40
78876;DHT22;68253;52.506;5.486;2023-08-24T00:23:30;17.60;70.40
78876;DHT22;68253;52.506;5.486;2023-08-24T00:25:56;17.60;70.50
78876;DHT22;68253;52.506;5.486;2023-08-24T00:28:22;17.70;70.50
78876;DHT22;68253;52.506;5.486;2023-08-24T00:30:49;17.70;70.40
78876;DHT22;68253;52.506;5.486;2023-08-24T00:33:15;17.70;70.50
78876;DHT22;68253;52.506;5.486;2023-08-24T00:35:41;17.80;70.60
78876;DHT22;68253;52.506;5.486;2023-08-24T00:38:07;17.80;70.60
78876;DHT22;68253;52.506;5.486;2023-08-24T00:40:33;17.80;70.60
78876;DHT22;68253;52.506;5.486;2023-08-24T00:43:00;17.80;70.50
78876;DHT22;68253;52.506;5.486;2023-08-24T00:45:30;17.80;70.40
78876;DHT22;68253;52.506;5.486;2023-08-24T00:47:56;17.80;70.40
78876;DHT22;68253;52.506;5.486;2023-08-24T00:50:23;17.80;70.40
78876;DHT22;68253;52.506;5.486;2023-08-24T00:52:49;17.90;70.40
78876;DHT22;68253;52.506;5.486;2023-08-24T00:55:16;18.00;70.50
78876;DHT22;68253;52.506;5.486;2023-08-24T00:57:43;18.00;70.50
78876;DHT22;68253;52.506;5.486;2023-08-24T01:00:10;18.00;70.30
78876;DHT22;68253;52.506;5.486;2023-08-24T01:02:38;18.00;70.20
78876;DHT22;68253;52.506;5.486;2023-08-24T01:05:04;18.10;70.20
78876;DHT22;68253;52.506;5.486;2023-08-24T01:07:32;18.10;70.30
78876;DHT22;68253;52.506;5.486;2023-08-24T01:09:58;18.10;70.30
78876;DHT22;68253;52.506;5.486;2023-08-24T01:12:52;18.10;70.20
78876;DHT22;68253;52.506;5.486;2023-08-24T01:15:32;18.10;70.10
78876;DHT22;68253;52.506;5.486;2023-08-24T01:18:04;18.10;70.30
78876;DHT22;68253;52.506;5.486;2023-08-24T01:20:32;18.10;70.20
78876;DHT22;68253;52.506;5.486;2023-08-24T01:25:52;18.10;70.10
78876;DHT22;68253;52.506;5.486;2023-08-24T01:28:20;18.10;70.10
78876;DHT22;68253;52.506;5.486;2023-08-24T01:30:47;18.20;70.20
78876;DHT22;68253;52.506;5.486;2023-08-24T01:33:14;18.20;70.20
78876;DHT22;68253;52.506;5.486;2023-08-24T01:35:41;18.20;70.50
78876;DHT22;68253;52.506;5.486;2023-08-24T01:38:08;18.20;71.00
78876;DHT22;68253;52.506;5.486;2023-08-24T01:43:21;18.30;70.90
78876;DHT22;68253;52.506;5.486;2023-08-24T01:45:52;18.20;70.90
78876;DHT22;68253;52.506;5.486;2023-08-24T01:48:19;18.20;71.10
78876;DHT22;68253;52.506;5.486;2023-08-24T01:50:46;18.20;71.50
78876;DHT22;68253;52.506;5.486;2023-08-24T01:53:13;18.20;71.60
78876;DHT22;68253;52.506;5.486;2023-08-24T01:55:39;18.20;71.70
78876;DHT22;68253;52.506;5.486;2023-08-24T01:58:06;18.20;71.60
78876;DHT22;68253;52.506;5.486;2023-08-24T02:00:32;18.20;71.50
78876;DHT22;68253;52.506;5.486;2023-08-24T02:02:58;18.20;71.60
78876;DHT22;68253;52.506;5.486;2023-08-24T02:05:25;18.20;71.80
78876;DHT22;68253;52.506;5.486;2023-08-24T02:07:54;18.20;71.90
78876;DHT22;68253;52.506;5.486;2023-08-24T02:10:23;18.20;71.70
78876;DHT22;68253;52.506;5.486;2023-08-24T02:12:49;18.20;71.70
78876;DHT22;68253;52.506;5.486;2023-08-24T02:15:15;18.20;71.70
78876;DHT22;68253;52.506;5.486;2023-08-24T02:17:41;18.10;71.70
78876;DHT22;68253;52.506;5.486;2023-08-24T02:20:08;18.10;71.80
78876;DHT22;68253;52.506;5.486;2023-08-24T02:22:34;18.10;71.90
78876;DHT22;68253;52.506;5.486;2023-08-24T02:25:01;18.10;71.80
78876;DHT22;68253;52.506;5.486;2023-08-24T02:27:28;18.10;71.90
78876;DHT22;68253;52.506;5.486;2023-08-24T02:29:54;18.00;71.80
78876;DHT22;68253;52.506;5.486;2023-08-24T02:32:21;18.00;71.90
78876;DHT22;68253;52.506;5.486;2023-08-24T02:34:47;18.00;72.00
78876;DHT22;68253;52.506;5.486;2023-08-24T02:37:13;18.00;72.10
78876;DHT22;68253;52.506;5.486;2023-08-24T02:39:41;18.00;72.00
78876;DHT22;68253;52.506;5.486;2023-08-24T02:42:07;18.00;72.10
78876;DHT22;68253;52.506;5.486;2023-08-24T02:44:34;18.00;72.10
78876;DHT22;68253;52.506;5.486;2023-08-24T02:47:00;18.00;72.10
78876;DHT22;68253;52.506;5.486;2023-08-24T02:49:27;18.00;72.10
78876;DHT22;68253;52.506;5.486;2023-08-24T02:51:53;17.90;72.20
78876;DHT22;68253;52.506;5.486;2023-08-24T02:54:19;18.00;72.30
78876;DHT22;68253;52.506;5.486;2023-08-24T02:56:45;17.90;72.30
78876;DHT22;68253;52.506;5.486;2023-08-24T02:59:12;17.90;72.30
78876;DHT22;68253;52.506;5.486;2023-08-24T03:01:38;17.90;72.30
78876;DHT22;68253;52.506;5.486;2023-08-24T03:04:07;17.80;72.40
78876;DHT22;68253;52.506;5.486;2023-08-24T03:06:33;17.80;72.30
78876;DHT22;68253;52.506;5.486;2023-08-24T03:09:00;17.80;72.50
78876;DHT22;68253;52.506;5.486;2023-08-24T03:11:30;17.80;72.40
78876;DHT22;68253;52.506;5.486;2023-08-24T03:13:56;17.80;72.50
78876;DHT22;68253;52.506;5.486;2023-08-24T03:16:22;17.80;72.50
78876;DHT22;68253;52.506;5.486;2023-08-24T03:18:48;17.80;72.50
78876;DHT22;68253;52.506;5.486;2023-08-24T03:21:16;17.80;72.50
78876;DHT22;68253;52.506;5.486;2023-08-24T03:23:43;17.70;72.40
78876;DHT22;68253;52.506;5.486;2023-08-24T03:26:09;17.60;72.40
78876;DHT22;68253;52.506;5.486;2023-08-24T03:28:35;17.60;72.50
78876;DHT22;68253;52.506;5.486;2023-08-24T03:31:01;17.60;72.50
78876;DHT22;68253;52.506;5.486;2023-08-24T03:33:28;17.60;72.50
78876;DHT22;68253;52.506;5.486;2023-08-24T03:35:54;17.60;72.40
78876;DHT22;68253;52.506;5.486;2023-08-24T03:38:21;17.60;72.40
78876;DHT22;68253;52.506;5.486;2023-08-24T03:40:47;17.60;72.50
78876;DHT22;68253;52.506;5.486;2023-08-24T03:43:13;17.60;72.50
78876;DHT22;68253;52.506;5.486;2023-08-24T03:45:39;17.50;72.70
78876;DHT22;68253;52.506;5.486;2023-08-24T03:48:07;17.50;72.70
78876;DHT22;68253;52.506;5.486;2023-08-24T03:50:33;17.50;72.70
78876;DHT22;68253;52.506;5.486;2023-08-24T03:52:59;17.50;72.80
78876;DHT22;68253;52.506;5.486;2023-08-24T03:55:26;17.40;72.90
78876;DHT22;68253;52.506;5.486;2023-08-24T03:57:52;17.40;72.90
78876;DHT22;68253;52.506;5.486;2023-08-24T04:00:20;17.40;73.00
78876;DHT22;68253;52.506;5.486;2023-08-24T04:02:47;17.40;73.00
78876;DHT22;68253;52.506;5.486;2023-08-24T04:05:21;17.40;72.90
78876;DHT22;68253;52.506;5.486;2023-08-24T04:07:48;17.40;72.90
78876;DHT22;68253;52.506;5.486;2023-08-24T04:10:14;17.40;72.90
78876;DHT22;68253;52.506;5.486;2023-08-24T04:12:40;17.40;72.90
78876;DHT22;68253;52.506;5.486;2023-08-24T04:15:07;17.40;72.90
78876;DHT22;68253;52.506;5.486;2023-08-24T04:17:33;17.40;73.00
78876;DHT22;68253;52.506;5.486;2023-08-24T04:20:00;17.40;73.00
78876;DHT22;68253;52.506;5.486;2023-08-24T04:22:26;17.40;73.00
78876;DHT22;68253;52.506;5.486;2023-08-24T04:24:52;17.40;73.00
78876;DHT22;68253;52.506;5.486;2023-08-24T04:27:19;17.40;73.00
78876;DHT22;68253;52.506;5.486;2023-08-24T04:29:45;17.30;72.90
78876;DHT22;68253;52.506;5.486;2023-08-24T04:32:11;17.40;72.90
78876;DHT22;68253;52.506;5.486;2023-08-24T04:34:37;17.40;72.90
78876;DHT22;68253;52.506;5.486;2023-08-24T04:37:03;17.30;72.90
78876;DHT22;68253;52.506;5.486;2023-08-24T04:39:30;17.20;73.00
78876;DHT22;68253;52.506;5.486;2023-08-24T04:41:56;17.20;73.00
78876;DHT22;68253;52.506;5.486;2023-08-24T04:44:23;17.20;73.10
78876;DHT22;68253;52.506;5.486;2023-08-24T04:46:50;17.20;73.10
78876;DHT22;68253;52.506;5.486;2023-08-24T04:49:16;17.20;73.20
78876;DHT22;68253;52.506;5.486;2023-08-24T04:51:42;17.20;73.20
78876;DHT22;68253;52.506;5.486;2023-08-24T04:54:08;17.20;73.30
78876;DHT22;68253;52.506;5.486;2023-08-24T04:56:35;17.20;73.30
78876;DHT22;68253;52.506;5.486;2023-08-24T04:59:01;17.20;73.30
78876;DHT22;68253;52.506;5.486;2023-08-24T05:01:28;17.20;73.30
78876;DHT22;68253;52.506;5.486;2023-08-24T05:03:57;17.20;73.40
78876;DHT22;68253;52.506;5.486;2023-08-24T05:06:23;17.20;73.50
78876;DHT22;68253;52.506;5.486;2023-08-24T05:08:49;17.20;73.40
78876;DHT22;68253;52.506;5.486;2023-08-24T05:11:21;17.20;73.40
78876;DHT22;68253;52.506;5.486;2023-08-24T05:13:48;17.20;73.50
78876;DHT22;68253;52.506;5.486;2023-08-24T05:16:14;17.20;73.40
78876;DHT22;68253;52.506;5.486;2023-08-24T05:18:40;17.20;73.40
78876;DHT22;68253;52.506;5.486;2023-08-24T05:21:07;17.30;73.40
78876;DHT22;68253;52.506;5.486;2023-08-24T05:23:33;17.30;73.30
78876;DHT22;68253;52.506;5.486;2023-08-24T05:26:00;17.30;73.30
78876;DHT22;68253;52.506;5.486;2023-08-24T05:28:27;17.30;73.30
78876;DHT22;68253;52.506;5.486;2023-08-24T05:30:54;17.40;73.20
78876;DHT22;68253;52.506;5.486;2023-08-24T05:33:21;17.40;73.30
78876;DHT22;68253;52.506;5.486;2023-08-24T05:35:49;17.50;73.20
78876;DHT22;68253;52.506;5.486;2023-08-24T05:38:16;17.50;73.10
78876;DHT22;68253;52.506;5.486;2023-08-24T05:40:51;17.50;73.00
78876;DHT22;68253;52.506;5.486;2023-08-24T05:43:17;17.50;73.00
78876;DHT22;68253;52.506;5.486;2023-08-24T05:45:43;17.50;73.00
78876;DHT22;68253;52.506;5.486;2023-08-24T05:48:10;17.50;73.00
78876;DHT22;68253;52.506;5.486;2023-08-24T05:50:43;17.60;72.90
78876;DHT22;68253;52.506;5.486;2023-08-24T05:53:09;17.60;72.90
78876;DHT22;68253;52.506;5.486;2023-08-24T05:55:35;17.70;72.90
78876;DHT22;68253;52.506;5.486;2023-08-24T05:58:01;17.80;72.80
78876;DHT22;68253;52.506;5.486;2023-08-24T06:00:27;17.90;72.70
78876;DHT22;68253;52.506;5.486;2023-08-24T06:02:53;18.00;72.50
78876;DHT22;68253;52.506;5.486;2023-08-24T06:05:19;18.00;72.30
78876;DHT22;68253;52.506;5.486;2023-08-24T06:07:46;18.20;72.20
78876;DHT22;68253;52.506;5.486;2023-08-24T06:10:12;18.30;72.10
78876;DHT22;68253;52.506;5.486;2023-08-24T06:12:38;18.40;71.80
78876;DHT22;68253;52.506;5.486;2023-08-24T06:15:05;18.50;71.60
78876;DHT22;68253;52.506;5.486;2023-08-24T06:17:33;18.60;71.40
78876;DHT22;68253;52.506;5.486;2023-08-24T06:20:04;18.80;71.30
78876;DHT22;68253;52.506;5.486;2023-08-24T06:22:30;19.00;71.10
78876;DHT22;68253;52.506;5.486;2023-08-24T06:24:57;19.10;70.90
78876;DHT22;68253;52.506;5.486;2023-08-24T06:27:26;19.20;70.80
78876;DHT22;68253;52.506;5.486;2023-08-24T06:29:52;19.30;70.50
78876;DHT22;68253;52.506;5.486;2023-08-24T06:32:19;19.50;70.40
78876;DHT22;68253;52.506;5.486;2023-08-24T06:34:45;19.50;70.20
78876;DHT22;68253;52.506;5.486;2023-08-24T06:37:11;19.70;70.10
78876;DHT22;68253;52.506;5.486;2023-08-24T06:39:37;19.80;69.80
78876;DHT22;68253;52.506;5.486;2023-08-24T06:42:03;19.90;69.70
78876;DHT22;68253;52.506;5.486;2023-08-24T06:44:30;20.00;69.50
78876;DHT22;68253;52.506;5.486;2023-08-24T06:46:57;20.20;69.10
78876;DHT22;68253;52.506;5.486;2023-08-24T06:49:23;20.30;68.90
78876;DHT22;68253;52.506;5.486;2023-08-24T06:51:49;20.50;68.80
78876;DHT22;68253;52.506;5.486;2023-08-24T06:54:15;20.60;68.70
78876;DHT22;68253;52.506;5.486;2023-08-24T06:56:41;20.80;68.40
78876;DHT22;68253;52.506;5.486;2023-08-24T06:59:09;21.00;68.20
78876;DHT22;68253;52.506;5.486;2023-08-24T07:01:37;21.10;67.50
78876;DHT22;68253;52.506;5.486;2023-08-24T07:04:03;21.10;67.50
78876;DHT22;68253;52.506;5.486;2023-08-24T07:06:29;21.40;67.20
78876;DHT22;68253;52.506;5.486;2023-08-24T07:08:55;21.60;67.10
78876;DHT22;68253;52.506;5.486;2023-08-24T07:11:21;21.90;66.80
78876;DHT22;68253;52.506;5.486;2023-08-24T07:13:49;22.10;66.40
78876;DHT22;68253;52.506;5.486;2023-08-24T07:16:16;22.20;65.70
78876;DHT22;68253;52.506;5.486;2023-08-24T07:18:42;22.50;65.70
78876;DHT22;68253;52.506;5.486;2023-08-24T07:21:08;22.60;65.30
78876;DHT22;68253;52.506;5.486;2023-08-24T07:23:34;22.80;65.00
78876;DHT22;68253;52.506;5.486;2023-08-24T07:26:00;23.10;64.70
78876;DHT22;68253;52.506;5.486;2023-08-24T07:28:26;23.30;63.70
78876;DHT22;68253;52.506;5.486;2023-08-24T07:30:53;23.40;63.20
78876;DHT22;68253;52.506;5.486;2023-08-24T07:33:22;23.50;63.10
78876;DHT22;68253;52.506;5.486;2023-08-24T07:35:48;23.60;63.00
78876;DHT22;68253;52.506;5.486;2023-08-24T07:38:14;23.60;63.20
78876;DHT22;68253;52.506;5.486;2023-08-24T07:40:40;23.90;63.10
78876;DHT22;68253;52.506;5.486;2023-08-24T07:43:06;24.10;63.10
78876;DHT22;68253;52.506;5.486;2023-08-24T07:45:33;24.40;62.60
78876;DHT22;68253;52.506;5.486;2023-08-24T07:47:59;24.60;61.90
78876;DHT22;68253;52.506;5.486;2023-08-24T07:50:26;24.70;61.90
78876;DHT22;68253;52.506;5.486;2023-08-24T07:52:52;24.80;61.70
78876;DHT22;68253;52.506;5.486;2023-08-24T07:55:18;24.80;61.50
78876;DHT22;68253;52.506;5.486;2023-08-24T07:57:44;25.00;61.60
78876;DHT22;68253;52.506;5.486;2023-08-24T08:00:11;25.10;61.20
78876;DHT22;68253;52.506;5.486;2023-08-24T08:02:39;25.20;61.10
78876;DHT22;68253;52.506;5.486;2023-08-24T08:05:05;25.30;61.10
78876;DHT22;68253;52.506;5.486;2023-08-24T08:07:36;25.50;60.50
78876;DHT22;68253;52.506;5.486;2023-08-24T08:10:04;25.60;60.50
78876;DHT22;68253;52.506;5.486;2023-08-24T08:12:30;25.70;60.30
78876;DHT22;68253;52.506;5.486;2023-08-24T08:14:58;25.60;60.00
78876;DHT22;68253;52.506;5.486;2023-08-24T08:17:24;25.60;60.20
78876;DHT22;68253;52.506;5.486;2023-08-24T08:19:54;25.50;59.90
78876;DHT22;68253;52.506;5.486;2023-08-24T08:22:21;25.50;59.80
78876;DHT22;68253;52.506;5.486;2023-08-24T08:24:47;25.50;59.70
78876;DHT22;68253;52.506;5.486;2023-08-24T08:27:13;25.60;59.80
78876;DHT22;68253;52.506;5.486;2023-08-24T08:29:39;25.60;59.50
78876;DHT22;68253;52.506;5.486;2023-08-24T08:32:06;25.80;59.40
78876;DHT22;68253;52.506;5.486;2023-08-24T08:34:33;25.80;59.40
78876;DHT22;68253;52.506;5.486;2023-08-24T08:36:59;26.00;59.00
78876;DHT22;68253;52.506;5.486;2023-08-24T08:39:25;26.10;59.00
78876;DHT22;68253;52.506;5.486;2023-08-24T08:41:51;26.20;58.90
78876;DHT22;68253;52.506;5.486;2023-08-24T08:44:19;26.20;58.50
78876;DHT22;68253;52.506;5.486;2023-08-24T08:46:46;26.00;58.80
78876;DHT22;68253;52.506;5.486;2023-08-24T08:49:13;25.80;59.30
78876;DHT22;68253;52.506;5.486;2023-08-24T08:51:42;25.70;59.70
78876;DHT22;68253;52.506;5.486;2023-08-24T08:54:08;25.60;60.00
78876;DHT22;68253;52.506;5.486;2023-08-24T08:56:35;25.50;60.00
78876;DHT22;68253;52.506;5.486;2023-08-24T08:59:02;25.40;60.50
78876;DHT22;68253;52.506;5.486;2023-08-24T09:01:30;25.30;60.50
78876;DHT22;68253;52.506;5.486;2023-08-24T09:03:57;25.20;60.10
78876;DHT22;68253;52.506;5.486;2023-08-24T09:06:23;25.10;60.10
78876;DHT22;68253;52.506;5.486;2023-08-24T09:08:50;25.00;60.50
78876;DHT22;68253;52.506;5.486;2023-08-24T09:11:17;25.00;60.80
78876;DHT22;68253;52.506;5.486;2023-08-24T09:13:45;25.00;60.80
78876;DHT22;68253;52.506;5.486;2023-08-24T09:16:11;25.00;61.00
78876;DHT22;68253;52.506;5.486;2023-08-24T09:18:45;25.00;61.30
78876;DHT22;68253;52.506;5.486;2023-08-24T09:21:12;24.80;61.20
78876;DHT22;68253;52.506;5.486;2023-08-24T09:23:52;24.70;61.30
78876;DHT22;68253;52.506;5.486;2023-08-24T09:26:28;24.70;61.60
78876;DHT22;68253;52.506;5.486;2023-08-24T09:28:56;24.60;62.00
78876;DHT22;68253;52.506;5.486;2023-08-24T09:31:23;24.50;62.20
78876;DHT22;68253;52.506;5.486;2023-08-24T09:33:50;24.50;62.40
78876;DHT22;68253;52.506;5.486;2023-08-24T09:36:25;24.40;62.30
78876;DHT22;68253;52.506;5.486;2023-08-24T09:38:51;24.40;62.50
78876;DHT22;68253;52.506;5.486;2023-08-24T09:41:18;24.30;62.70
78876;DHT22;68253;52.506;5.486;2023-08-24T09:43:44;24.20;63.20
78876;DHT22;68253;52.506;5.486;2023-08-24T09:46:10;24.20;63.60
78876;DHT22;68253;52.506;5.486;2023-08-24T09:48:36;24.20;63.60
78876;DHT22;68253;52.506;5.486;2023-08-24T09:51:04;24.10;63.60
78876;DHT22;68253;52.506;5.486;2023-08-24T09:53:32;24.00;63.40
78876;DHT22;68253;52.506;5.486;2023-08-24T09:56:00;24.00;63.70
78876;DHT22;68253;52.506;5.486;2023-08-24T09:58:27;23.90;63.80
78876;DHT22;68253;52.506;5.486;2023-08-24T10:00:55;23.80;64.30
78876;DHT22;68253;52.506;5.486;2023-08-24T10:03:27;23.70;64.40
78876;DHT22;68253;52.506;5.486;2023-08-24T10:05:55;23.60;64.70
78876;DHT22;68253;52.506;5.486;2023-08-24T10:08:33;23.60;65.10
78876;DHT22;68253;52.506;5.486;2023-08-24T10:11:00;23.60;65.20
78876;DHT22;68253;52.506;5.486;2023-08-24T10:13:46;23.50;65.40
78876;DHT22;68253;52.506;5.486;2023-08-24T10:16:16;23.40;65.90
78876;DHT22;68253;52.506;5.486;2023-08-24T10:18:44;23.30;66.10
78876;DHT22;68253;52.506;5.486;2023-08-24T10:21:11;23.30;66.40
78876;DHT22;68253;52.506;5.486;2023-08-24T10:23:37;23.30;66.20
78876;DHT22;68253;52.506;5.486;2023-08-24T10:26:06;23.30;66.20
78876;DHT22;68253;52.506;5.486;2023-08-24T10:28:33;23.30;66.30
78876;DHT22;68253;52.506;5.486;2023-08-24T10:30:59;23.30;66.90
78876;DHT22;68253;52.506;5.486;2023-08-24T10:33:27;23.30;67.60
78876;DHT22;68253;52.506;5.486;2023-08-24T10:35:55;23.30;68.20
78876;DHT22;68253;52.506;5.486;2023-08-24T10:38:26;23.30;68.50
78876;DHT22;68253;52.506;5.486;2023-08-24T10:40:53;23.30;68.70
78876;DHT22;68253;52.506;5.486;2023-08-24T10:43:20;23.30;68.60
78876;DHT22;68253;52.506;5.486;2023-08-24T10:46:01;23.30;68.70
78876;DHT22;68253;52.506;5.486;2023-08-24T10:53:44;23.20;69.80
78876;DHT22;68253;52.506;5.486;2023-08-24T10:56:11;23.20;70.20
78876;DHT22;68253;52.506;5.486;2023-08-24T10:58:38;23.20;70.50
78876;DHT22;68253;52.506;5.486;2023-08-24T11:01:04;23.20;70.90
78876;DHT22;68253;52.506;5.486;2023-08-24T11:03:31;23.20;71.00
78876;DHT22;68253;52.506;5.486;2023-08-24T11:05:58;23.30;71.10
78876;DHT22;68253;52.506;5.486;2023-08-24T11:08:47;23.30;71.20
78876;DHT22;68253;52.506;5.486;2023-08-24T11:11:24;23.30;71.50
78876;DHT22;68253;52.506;5.486;2023-08-24T11:16:46;23.30;71.50
78876;DHT22;68253;52.506;5.486;2023-08-24T11:19:14;23.30;71.70
78876;DHT22;68253;52.506;5.486;2023-08-24T11:21:42;23.40;72.00
78876;DHT22;68253;52.506;5.486;2023-08-24T11:24:15;23.40;72.20
78876;DHT22;68253;52.506;5.486;2023-08-24T11:26:47;23.40;72.20
78876;DHT22;68253;52.506;5.486;2023-08-24T11:29:14;23.40;72.40
78876;DHT22;68253;52.506;5.486;2023-08-24T11:31:41;23.40;72.50
78876;DHT22;68253;52.506;5.486;2023-08-24T11:34:07;23.50;72.60
78876;DHT22;68253;52.506;5.486;2023-08-24T11:36:45;23.50;72.50
78876;DHT22;68253;52.506;5.486;2023-08-24T11:39:19;23.50;72.50
78876;DHT22;68253;52.506;5.486;2023-08-24T11:41:57;23.50;72.50
78876;DHT22;68253;52.506;5.486;2023-08-24T11:44:24;23.60;72.70
78876;DHT22;68253;52.506;5.486;2023-08-24T11:46:50;23.60;72.80
78876;DHT22;68253;52.506;5.486;2023-08-24T11:49:17;23.80;72.70
78876;DHT22;68253;52.506;5.486;2023-08-24T11:51:43;23.90;72.60
78876;DHT22;68253;52.506;5.486;2023-08-24T11:54:09;24.00;72.10
78876;DHT22;68253;52.506;5.486;2023-08-24T11:56:42;24.00;71.90
78876;DHT22;68253;52.506;5.486;2023-08-24T11:59:12;24.20;71.80
78876;DHT22;68253;52.506;5.486;2023-08-24T12:01:41;24.20;71.60
78876;DHT22;68253;52.506;5.486;2023-08-24T12:04:07;24.20;71.30
78876;DHT22;68253;52.506;5.486;2023-08-24T12:06:34;24.00;70.80
78876;DHT22;68253;52.506;5.486;2023-08-24T12:09:00;24.00;70.50
78876;DHT22;68253;52.506;5.486;2023-08-24T12:11:28;23.90;70.20
78876;DHT22;68253;52.506;5.486;2023-08-24T12:13:55;23.70;70.30
78876;DHT22;68253;52.506;5.486;2023-08-24T12:16:22;23.60;70.30
78876;DHT22;68253;52.506;5.486;2023-08-24T12:18:54;23.50;70.40
78876;DHT22;68253;52.506;5.486;2023-08-24T12:21:22;23.50;70.50
78876;DHT22;68253;52.506;5.486;2023-08-24T12:24:05;23.50;70.30
78876;DHT22;68253;52.506;5.486;2023-08-24T12:26:35;23.50;70.30
78876;DHT22;68253;52.506;5.486;2023-08-24T12:29:03;23.50;70.30
78876;DHT22;68253;52.506;5.486;2023-08-24T12:31:32;23.60;70.10
78876;DHT22;68253;52.506;5.486;2023-08-24T12:34:02;23.60;70.20
78876;DHT22;68253;52.506;5.486;2023-08-24T12:36:33;23.70;70.10
78876;DHT22;68253;52.506;5.486;2023-08-24T12:38:59;23.80;70.10
78876;DHT22;68253;52.506;5.486;2023-08-24T12:41:25;23.80;70.10
78876;DHT22;68253;52.506;5.486;2023-08-24T12:43:52;23.90;70.10
78876;DHT22;68253;52.506;5.486;2023-08-24T12:46:18;23.80;69.80
78876;DHT22;68253;52.506;5.486;2023-08-24T12:48:44;23.80;69.90
78876;DHT22;68253;52.506;5.486;2023-08-24T12:51:11;23.70;69.80
78876;DHT22;68253;52.506;5.486;2023-08-24T12:53:37;23.60;69.80
78876;DHT22;68253;52.506;5.486;2023-08-24T12:56:04;23.60;70.00
78876;DHT22;68253;52.506;5.486;2023-08-24T12:58:30;23.60;69.90
78876;DHT22;68253;52.506;5.486;2023-08-24T13:00:56;23.60;70.10
78876;DHT22;68253;52.506;5.486;2023-08-24T13:03:23;23.60;70.10
78876;DHT22;68253;52.506;5.486;2023-08-24T13:05:49;23.60;69.80
78876;DHT22;68253;52.506;5.486;2023-08-24T13:08:15;23.60;69.70
78876;DHT22;68253;52.506;5.486;2023-08-24T13:10:41;23.60;69.50
78876;DHT22;68253;52.506;5.486;2023-08-24T13:13:08;23.50;69.50
78876;DHT22;68253;52.506;5.486;2023-08-24T13:15:34;23.50;69.70
78876;DHT22;68253;52.506;5.486;2023-08-24T13:18:00;23.40;69.90
78876;DHT22;68253;52.506;5.486;2023-08-24T13:20:26;23.40;69.90
78876;DHT22;68253;52.506;5.486;2023-08-24T13:22:53;23.30;69.70
78876;DHT22;68253;52.506;5.486;2023-08-24T13:25:19;23.30;69.80
78876;DHT22;68253;52.506;5.486;2023-08-24T13:27:45;23.20;69.90
78876;DHT22;68253;52.506;5.486;2023-08-24T13:30:12;23.10;70.00
78876;DHT22;68253;52.506;5.486;2023-08-24T13:32:38;23.00;70.20
78876;DHT22;68253;52.506;5.486;2023-08-24T13:35:05;23.00;70.40
78876;DHT22;68253;52.506;5.486;2023-08-24T13:37:31;23.00;70.30
78876;DHT22;68253;52.506;5.486;2023-08-24T13:40:00;22.90;70.30
78876;DHT22;68253;52.506;5.486;2023-08-24T13:42:27;22.90;70.30
78876;DHT22;68253;52.506;5.486;2023-08-24T13:44:53;22.90;70.50
78876;DHT22;68253;52.506;5.486;2023-08-24T13:47:19;22.90;70.90
78876;DHT22;68253;52.506;5.486;2023-08-24T13:49:47;22.90;71.10
78876;DHT22;68253;52.506;5.486;2023-08-24T13:52:14;22.90;71.10
78876;DHT22;68253;52.506;5.486;2023-08-24T13:54:42;22.90;71.40
78876;DHT22;68253;52.506;5.486;2023-08-24T13:57:09;22.90;71.20
78876;DHT22;68253;52.506;5.486;2023-08-24T13:59:35;23.00;71.00
78876;DHT22;68253;52.506;5.486;2023-08-24T14:02:01;23.00;70.90
78876;DHT22;68253;52.506;5.486;2023-08-24T14:04:27;23.00;71.00
78876;DHT22;68253;52.506;5.486;2023-08-24T14:06:53;23.10;70.60
78876;DHT22;68253;52.506;5.486;2023-08-24T14:09:19;23.10;70.50
78876;DHT22;68253;52.506;5.486;2023-08-24T14:11:46;23.10;70.50
78876;DHT22;68253;52.506;5.486;2023-08-24T14:14:14;23.20;70.70
78876;DHT22;68253;52.506;5.486;2023-08-24T14:16:40;23.20;70.50
78876;DHT22;68253;52.506;5.486;2023-08-24T14:19:06;23.20;70.30
78876;DHT22;68253;52.506;5.486;2023-08-24T14:21:32;23.30;70.30
78876;DHT22;68253;52.506;5.486;2023-08-24T14:23:58;23.40;70.20
78876;DHT22;68253;52.506;5.486;2023-08-24T14:26:24;23.50;70.40
78876;DHT22;68253;52.506;5.486;2023-08-24T14:28:56;23.50;69.90
78876;DHT22;68253;52.506;5.486;2023-08-24T14:31:29;23.60;69.70
78876;DHT22;68253;52.506;5.486;2023-08-24T14:33:56;23.70;69.30
78876;DHT22;68253;52.506;5.486;2023-08-24T14:36:23;23.80;69.00
78876;DHT22;68253;52.506;5.486;2023-08-24T14:38:50;23.90;68.80
78876;DHT22;68253;52.506;5.486;2023-08-24T14:41:18;23.90;68.80
78876;DHT22;68253;52.506;5.486;2023-08-24T14:43:46;23.90;68.90
78876;DHT22;68253;52.506;5.486;2023-08-24T14:46:12;23.90;68.80
78876;DHT22;68253;52.506;5.486;2023-08-24T14:48:38;23.90;68.70
78876;DHT22;68253;52.506;5.486;2023-08-24T14:51:05;23.80;69.00
78876;DHT22;68253;52.506;5.486;2023-08-24T14:53:31;23.80;69.40
78876;DHT22;68253;52.506;5.486;2023-08-24T14:55:58;23.80;69.00
78876;DHT22;68253;52.506;5.486;2023-08-24T14:58:25;23.90;68.60
78876;DHT22;68253;52.506;5.486;2023-08-24T15:00:52;23.90;68.60
78876;DHT22;68253;52.506;5.486;2023-08-24T15:03:19;23.90;68.60
78876;DHT22;68253;52.506;5.486;2023-08-24T15:05:59;23.80;68.70
78876;DHT22;68253;52.506;5.486;2023-08-24T15:08:25;23.80;68.30
78876;DHT22;68253;52.506;5.486;2023-08-24T15:10:55;23.80;68.30
78876;DHT22;68253;52.506;5.486;2023-08-24T15:13:23;23.80;68.60
78876;DHT22;68253;52.506;5.486;2023-08-24T15:15:49;23.80;68.30
78876;DHT22;68253;52.506;5.486;2023-08-24T15:18:16;23.80;68.20
78876;DHT22;68253;52.506;5.486;2023-08-24T15:20:42;23.80;68.40
78876;DHT22;68253;52.506;5.486;2023-08-24T15:23:08;23.80;68.50
78876;DHT22;68253;52.506;5.486;2023-08-24T15:25:34;23.80;68.60
78876;DHT22;68253;52.506;5.486;2023-08-24T15:28:00;23.80;69.00
78876;DHT22;68253;52.506;5.486;2023-08-24T15:30:26;23.80;69.20
78876;DHT22;68253;52.506;5.486;2023-08-24T15:32:53;23.80;69.30
78876;DHT22;68253;52.506;5.486;2023-08-24T15:35:19;23.80;69.50
78876;DHT22;68253;52.506;5.486;2023-08-24T15:37:45;23.80;69.90
78876;DHT22;68253;52.506;5.486;2023-08-24T15:40:11;23.90;69.90
78876;DHT22;68253;52.506;5.486;2023-08-24T15:42:37;23.90;70.10
78876;DHT22;68253;52.506;5.486;2023-08-24T15:45:04;23.90;69.70